createdAt,value
2019-03-23T00:03:00.918Z,45.57
2019-03-23T00:07:55.655Z,47.40
2019-03-23T00:12:50.271Z,47.37
2019-03-23T00:17:44.904Z,50.50
2019-03-23T00:22:39.504Z,50.23
2019-03-23T00:27:34.120Z,46.97
2019-03-23T00:32:28.810Z,46.13
2019-03-23T00:37:23.435Z,48.20
2019-03-23T00:42:18.031Z,44.80
2019-03-23T00:47:12.693Z,44.57
2019-03-23T00:52:07.369Z,59.37
2019-03-23T00:57:02.086Z,48.40
2019-03-23T01:01:56.734Z,44.77
2019-03-23T01:06:52.401Z,41.60
2019-03-23T01:11:47.448Z,43.70
2019-03-23T01:16:42.113Z,49.57
2019-03-23T01:21:36.675Z,43.27
2019-03-23T01:26:31.280Z,46.83
2019-03-23T01:31:25.871Z,48.33
2019-03-23T01:36:20.497Z,52.33
2019-03-23T01:41:15.113Z,46.97
2019-03-23T01:46:09.702Z,46.57
2019-03-23T01:51:04.424Z,57.33
2019-03-23T01:55:59.051Z,52.30
2019-03-23T02:00:53.748Z,48.30
2019-03-23T02:05:48.349Z,51.77
2019-03-23T02:10:42.944Z,45.23
2019-03-23T02:15:37.550Z,47.47
2019-03-23T02:20:32.160Z,49.63
2019-03-23T02:25:26.779Z,47.17
2019-03-23T02:30:21.373Z,53.83
2019-03-23T02:35:15.967Z,50.50
2019-03-23T02:40:11.794Z,53.90
2019-03-23T02:45:09.878Z,54.43
2019-03-23T02:50:07.244Z,47.53
2019-03-23T02:55:01.848Z,46.53
2019-03-23T02:59:56.514Z,53.20
2019-03-23T03:04:51.137Z,48.63
2019-03-23T03:09:45.743Z,51.13
2019-03-23T03:14:40.336Z,55.53
2019-03-23T03:19:34.928Z,53.87
2019-03-23T03:24:29.535Z,55.47
2019-03-23T03:29:24.117Z,54.80
2019-03-23T03:34:18.710Z,53.40
2019-03-23T03:39:13.288Z,53.97
2019-03-23T03:44:07.878Z,50.07
2019-03-23T03:49:12.182Z,56.17
2019-03-23T03:53:58.801Z,50.90
2019-03-23T03:58:53.417Z,54.90
2019-03-23T04:03:48.026Z,53.17
2019-03-23T04:08:42.629Z,55.50
2019-03-23T04:13:37.707Z,55.63
2019-03-23T04:18:32.282Z,53.10
2019-03-23T04:23:26.882Z,57.93
2019-03-23T04:28:21.498Z,51.83
2019-03-23T04:33:16.083Z,52.90
2019-03-23T04:38:21.975Z,52.57
2019-03-23T04:43:07.083Z,56.60
2019-03-23T04:48:01.695Z,57.07
2019-03-23T04:52:56.296Z,58.67
2019-03-23T04:57:50.888Z,60.43
2019-03-23T05:02:45.557Z,56.53
2019-03-23T05:07:40.152Z,56.90
2019-03-23T05:12:34.755Z,57.87
2019-03-23T05:17:29.351Z,56.20
2019-03-23T05:22:23.971Z,55.37
2019-03-23T05:27:18.579Z,52.30
2019-03-23T05:32:13.264Z,57.43
2019-03-23T05:37:07.852Z,58.87
2019-03-23T05:42:02.487Z,56.53
2019-03-23T05:46:57.076Z,55.10
2019-03-23T05:51:51.678Z,55.40
2019-03-23T05:56:46.294Z,52.93
2019-03-23T06:01:40.906Z,49.40
2019-03-23T06:06:35.492Z,48.30
2019-03-23T06:11:30.094Z,51.37
2019-03-23T06:16:24.696Z,47.20
2019-03-23T06:21:19.287Z,43.63
2019-03-23T06:26:14.003Z,42.50
2019-03-23T06:31:08.598Z,45.57
2019-03-23T06:36:03.192Z,44.27
2019-03-23T06:40:57.797Z,44.63
2019-03-23T06:45:52.396Z,47.80
2019-03-23T06:50:47.004Z,46.63
2019-03-23T06:55:41.604Z,48.27
2019-03-23T07:00:36.214Z,46.67
2019-03-23T07:05:30.890Z,49.17
2019-03-23T07:10:25.476Z,50.13
2019-03-23T07:15:20.671Z,49.67
2019-03-23T07:20:16.781Z,44.70
2019-03-23T07:25:12.767Z,49.20
2019-03-23T07:30:17.325Z,45.07
2019-03-23T07:35:12.447Z,46.67
2019-03-23T07:40:10.424Z,45.13
2019-03-23T07:45:09.041Z,44.43
2019-03-23T07:50:05.832Z,50.90
2019-03-23T07:55:10.379Z,47.17
2019-03-23T08:00:09.513Z,48.67
2019-03-23T08:05:06.283Z,47.10
2019-03-23T08:10:00.880Z,47.57
2019-03-23T08:14:55.494Z,49.47
2019-03-23T08:19:50.075Z,52.80
2019-03-23T08:24:44.662Z,48.30
2019-03-23T08:29:39.260Z,45.90
2019-03-23T08:34:33.879Z,50.47
2019-03-23T08:39:28.501Z,51.67
2019-03-23T08:44:23.115Z,50.50
2019-03-23T08:49:17.713Z,52.13
2019-03-23T08:54:12.316Z,50.03
2019-03-23T08:59:06.914Z,52.43
2019-03-23T09:04:01.529Z,49.27
2019-03-23T09:08:56.147Z,54.77
2019-03-23T09:13:50.755Z,48.87
2019-03-23T09:18:45.349Z,50.73
2019-03-23T09:23:39.960Z,46.53
2019-03-23T09:28:34.561Z,45.73
2019-03-23T09:33:29.184Z,48.33
2019-03-23T09:38:23.784Z,48.60
2019-03-23T09:43:18.387Z,47.63
2019-03-23T09:48:13.004Z,44.73
2019-03-23T09:53:07.621Z,43.97
2019-03-23T09:58:02.227Z,43.23
2019-03-23T10:02:56.836Z,39.23
2019-03-23T10:07:51.439Z,36.27
2019-03-23T10:12:46.046Z,39.63
2019-03-23T10:17:40.668Z,35.73
2019-03-23T10:22:35.331Z,35.93
2019-03-23T10:27:29.946Z,35.87
2019-03-23T10:32:24.544Z,39.30
2019-03-23T10:37:19.164Z,39.93
2019-03-23T10:42:16.130Z,32.00
2019-03-23T10:47:10.101Z,33.80
2019-03-23T10:52:04.711Z,35.17
2019-03-23T10:56:59.324Z,33.30
2019-03-23T11:01:54.006Z,33.23
2019-03-23T11:06:48.604Z,34.00
2019-03-23T11:11:43.230Z,39.53
2019-03-23T11:16:37.832Z,46.00
2019-03-23T11:21:32.534Z,42.37
2019-03-23T11:26:28.117Z,40.70
2019-03-23T11:31:22.915Z,38.83
2019-03-23T11:36:17.527Z,40.60
2019-03-23T11:41:12.149Z,38.97
2019-03-23T11:46:06.746Z,38.17
2019-03-23T11:51:01.365Z,38.50
2019-03-23T11:55:55.951Z,43.43
2019-03-23T12:00:50.566Z,41.43
2019-03-23T12:05:45.159Z,36.83
2019-03-23T12:10:39.764Z,36.90
2019-03-23T12:15:34.353Z,39.40
2019-03-23T12:20:28.949Z,41.07
2019-03-23T12:25:23.544Z,39.50
2019-03-23T12:30:19.448Z,40.13
2019-03-23T12:35:14.301Z,40.50
2019-03-23T12:40:10.616Z,39.70
2019-03-23T12:45:07.824Z,39.57
2019-03-23T12:50:02.438Z,41.60
2019-03-23T12:54:57.034Z,37.80
2019-03-23T12:59:51.667Z,42.73
2019-03-23T13:04:46.277Z,41.80
2019-03-23T13:09:40.863Z,44.57
2019-03-23T13:14:35.467Z,44.13
2019-03-23T13:19:30.085Z,43.37
2019-03-23T13:24:24.779Z,37.83
2019-03-23T13:29:19.366Z,44.97
2019-03-23T13:34:14.024Z,38.17
2019-03-23T13:39:08.732Z,45.10
2019-03-23T13:44:03.343Z,45.17
2019-03-23T13:48:57.954Z,47.97
2019-03-23T13:53:52.553Z,41.40
2019-03-23T13:58:47.238Z,45.47
2019-03-23T14:03:41.859Z,44.87
2019-03-23T14:08:36.472Z,44.57
2019-03-23T14:13:31.514Z,42.60
2019-03-23T14:18:26.136Z,45.80
2019-03-23T14:23:20.804Z,44.87
2019-03-23T14:28:15.428Z,38.73
2019-03-23T14:33:10.015Z,42.07
2019-03-23T14:38:04.734Z,42.77
2019-03-23T14:42:59.326Z,43.17
2019-03-23T14:47:53.933Z,40.33
2019-03-23T14:52:48.514Z,44.93
2019-03-23T14:57:43.159Z,36.03
2019-03-23T15:02:37.746Z,38.13
2019-03-23T15:07:32.361Z,36.30
2019-03-23T15:12:26.956Z,36.77
2019-03-23T15:17:21.586Z,38.10
2019-03-23T15:22:16.161Z,37.70
2019-03-23T15:27:10.777Z,35.43
2019-03-23T15:32:05.369Z,37.80
2019-03-23T15:36:59.998Z,36.23
2019-03-23T15:41:54.594Z,32.87
2019-03-23T15:46:49.216Z,31.63
2019-03-23T15:51:43.789Z,30.37
2019-03-23T15:56:38.399Z,26.03
2019-03-23T16:01:32.987Z,27.13
2019-03-23T16:06:27.606Z,28.00
2019-03-23T16:11:22.194Z,30.97
2019-03-23T16:16:16.799Z,32.37
2019-03-23T16:21:11.392Z,36.73
2019-03-23T16:26:06.134Z,36.10
2019-03-23T16:31:00.757Z,32.20
2019-03-23T16:35:55.382Z,31.53
2019-03-23T16:40:49.969Z,31.13
2019-03-23T16:45:44.591Z,35.47
2019-03-23T16:50:39.271Z,37.97
2019-03-23T16:55:33.890Z,33.57
2019-03-23T17:00:39.398Z,35.67
2019-03-23T17:05:36.300Z,35.63
2019-03-23T17:10:30.510Z,30.43
2019-03-23T17:15:25.112Z,33.70
2019-03-23T17:20:19.735Z,37.80
2019-03-23T17:25:14.401Z,34.03
2019-03-23T17:30:12.834Z,34.07
2019-03-23T17:35:09.620Z,34.40
2019-03-23T17:40:07.402Z,36.40
2019-03-23T17:45:02.014Z,37.20
2019-03-23T17:49:57.331Z,40.33
2019-03-23T17:54:52.287Z,35.80
2019-03-23T17:59:46.892Z,38.00
2019-03-23T18:04:41.500Z,39.67
2019-03-23T18:09:36.113Z,38.73
2019-03-23T18:14:30.726Z,36.90
2019-03-23T18:19:25.327Z,35.80
2019-03-23T18:24:19.977Z,40.03
2019-03-23T18:29:14.584Z,40.97
2019-03-23T18:34:09.194Z,39.47
2019-03-23T18:39:05.166Z,38.67
2019-03-23T18:43:59.785Z,36.30
2019-03-23T18:48:54.382Z,36.67
2019-03-23T18:53:48.972Z,32.60
2019-03-23T18:58:43.592Z,35.67
2019-03-23T19:03:40.359Z,37.20
2019-03-23T19:08:34.524Z,30.07
2019-03-23T19:13:37.573Z,37.03
2019-03-23T19:18:25.468Z,35.27
2019-03-23T19:23:20.082Z,38.83
2019-03-23T19:28:14.696Z,34.43
2019-03-23T19:33:09.300Z,42.23
2019-03-23T19:38:14.866Z,45.90
2019-03-23T19:43:09.463Z,45.13
2019-03-23T19:48:04.381Z,42.43
2019-03-23T19:52:58.980Z,36.27
2019-03-23T19:57:54.748Z,34.47
2019-03-23T20:02:49.396Z,31.33
2019-03-23T20:07:44.018Z,31.43
2019-03-23T20:12:38.802Z,35.93
2019-03-23T20:17:33.394Z,34.43
2019-03-23T20:22:27.996Z,41.70
2019-03-23T20:27:22.587Z,36.47
2019-03-23T20:32:17.197Z,44.40
2019-03-23T20:37:11.765Z,41.90
2019-03-23T20:42:06.537Z,38.03
2019-03-23T20:47:01.209Z,37.97
2019-03-23T20:51:56.350Z,36.40
2019-03-23T20:56:50.932Z,40.27
2019-03-23T21:01:45.565Z,42.47
2019-03-23T21:06:40.205Z,45.17
2019-03-23T21:11:35.461Z,40.60
2019-03-23T21:16:30.124Z,40.53
2019-03-23T21:21:24.715Z,42.50
2019-03-23T21:26:19.330Z,42.13
2019-03-23T21:31:13.916Z,41.53
2019-03-23T21:36:08.516Z,38.43
2019-03-23T21:41:03.088Z,34.70
2019-03-23T21:45:57.744Z,40.33
2019-03-23T21:50:53.887Z,44.10
2019-03-23T21:55:48.503Z,40.20
2019-03-23T22:00:43.087Z,41.57
2019-03-23T22:05:37.754Z,36.50
2019-03-23T22:10:32.453Z,44.97
2019-03-23T22:15:28.737Z,52.37
2019-03-23T22:20:23.335Z,41.27
2019-03-23T22:25:17.937Z,47.13
2019-03-23T22:30:17.460Z,47.63
2019-03-23T22:35:12.182Z,47.63
2019-03-23T22:40:09.867Z,46.87
2019-03-23T22:45:10.016Z,42.80
2019-03-23T22:50:07.008Z,39.33
2019-03-23T22:55:01.605Z,41.17
2019-03-23T22:59:56.211Z,35.70
2019-03-23T23:04:50.805Z,40.30
2019-03-23T23:09:45.425Z,36.33
2019-03-23T23:14:40.036Z,38.30
2019-03-23T23:19:34.627Z,35.70
2019-03-23T23:24:29.218Z,40.73
2019-03-23T23:29:23.827Z,38.50
2019-03-23T23:34:18.423Z,36.80
2019-03-23T23:39:13.004Z,38.10
2019-03-23T23:44:07.595Z,38.27
2019-03-23T23:49:02.195Z,40.73
2019-03-23T23:53:56.798Z,36.07
2019-03-23T23:58:51.388Z,38.97
